Terminal Aerodrome Forecast
Issued by NWS Goodland, KS

Home | Current Version | Previous Version | Text Only | Print | Product List | Glossary On
Versions: 1 2 3 4 5 6 7 8 9 10 11 12 13 14
449
FTUS43 KGLD 061159 CCA
TAFGLD
TAF COR
KGLD 061159Z 0612/0712 17015KT P6SM SCT250 WS002/17044KT
     FM061400 18020G25KT P6SM SCT250
     FM070300 18018G25KT P6SM SCT250 WS020/18045KT
     FM070800 17009KT P6SM SCT250 WS020/20050KT=

USA.gov is the U.S. government's official web portal to all federal, state and local government web resources and services.